• Join FlightAware (Why Join?)
  • Login
  • US Flag 
01:02AM EDT


 

Airport Tracker/Info


-or-


 

Live Flight TrackerFlight Track Log ✈ N4324V ✈ 18-Jul-2013 ✈ KSLN - KSUS

Flight Track Log - Related Links

Times and Time Zones

All times are in EDT time to prevent confusion due to time zone crossing. See the N4324V flight status page for this flight to view local times or setup timezone preferences in your user account.

Time Position Orientation Groundspeed Altitude Reporting Facility
EDT Latitude Longitude Course Direction KTS MPH feet Rate Location/Type
08:23PM 38.7772 -97.6181 90° East 139 160 2,200  Level Kansas City Center
08:24PM 38.7961 -97.5628 66° East 162 186 3,000 720 Climbing Kansas City Center
08:25PM 38.7981 -97.5036 88° East 159 183 3,800 720 Climbing Kansas City Center
08:26PM 38.7983 -97.4428 90° East 164 189 4,600 780 Climbing Kansas City Center
08:27PM 38.8003 -97.3831 88° East 162 186 5,400 720 Climbing Kansas City Center
08:28PM 38.7836 -97.1888 90° East  Level FlightAware Approximate
08:28PM 38.8003 -97.3236 90° East 160 184 6,100  Level Kansas City Center
08:29PM 38.8011 -97.2642 89° East 161 185 6,900 720 Climbing Kansas City Center
08:30PM 38.8019 -97.2050 89° East 159 183 7,600 660 Climbing Kansas City Center
08:31PM 38.8019 -97.1514 90° East 157 181 8,300 660 Climbing Kansas City Center
08:32PM 38.8025 -97.0933 89° East 157 181 9,000 300 Climbing Kansas City Center
08:33PM 38.8019 -97.0283 91° East 179 206 9,000  Level Kansas City Center
08:34PM 38.8031 -96.9564 89° East 194 223 9,000  Level Kansas City Center
08:35PM 38.8042 -96.8822 89° East 200 230 9,000  Level Kansas City Center
08:36PM 38.8044 -96.8081 90° East 200 230 9,000  Level Kansas City Center
08:37PM 38.8061 -96.7336 88° East 201 231 9,000  Level Kansas City Center
08:38PM 38.8061 -96.6600 90° East 199 229 9,000  Level Kansas City Center
08:39PM 38.8064 -96.5867 90° East 197 227 9,000  Level Kansas City Center
08:40PM 38.8064 -96.5183 90° East 199 229 9,000  Level Kansas City Center
08:42PM 38.8067 -96.4439 90° East 200 230 9,000  Level Kansas City Center
08:43PM 38.8064 -96.3694 90° East 200 230 9,000  Level Kansas City Center
08:44PM 38.8061 -96.2956 90° East 200 230 9,000  Level Kansas City Center
08:45PM 38.8061 -96.2217 90° East 200 230 9,000  Level Kansas City Center
08:46PM 38.8058 -96.1472 90° East 200 230 9,000  Level Kansas City Center
08:47PM 38.8056 -96.0806 90° East 200 230 9,000  Level Kansas City Center
08:48PM 38.8058 -96.0019 90° East 197 227 9,000  Level Kansas City Center
08:49PM 38.8050 -95.9347 91° East 196 226 9,000  Level Kansas City Center
08:50PM 38.8047 -95.8567 90° East 194 223 9,000  Level Kansas City Center
08:51PM 38.8039 -95.7886 91° East 201 231 9,000  Level Kansas City Center
08:52PM 38.8028 -95.7069 91° East 204 235 9,000  Level Kansas City Center
08:53PM 38.8031 -95.6403 90° East 197 227 9,000  Level Kansas City Center
08:54PM 38.8028 -95.5728 90° East 198 228 9,000  Level Kansas City Center
08:55PM 38.8017 -95.4953 91° East 195 224 9,000  Level Kansas City Center
08:56PM 38.8011 -95.4297 91° East 194 223 9,000  Level Kansas City Center
08:57PM 38.8000 -95.3528 91° East 193 222 9,000  Level Kansas City Center
08:58PM 38.7997 -95.2861 90° East 195 224 9,000  Level Kansas City Center
08:59PM 38.7989 -95.2083 91° East 196 226 9,000  Level Kansas City Center
09:00PM 38.7978 -95.1297 91° East 198 228 9,000  Level Kansas City Center
09:01PM 38.7967 -95.0636 91° East 195 224 9,000  Level Kansas City Center
09:02PM 38.7969 -94.9839 90° East 199 229 9,000  Level Kansas City Center
09:03PM 38.7964 -94.9147 91° East 202 232 9,000  Level Kansas City Center
09:04PM 38.7956 -94.8342 91° East 202 232 9,000  Level Kansas City Center
09:05PM 38.7947 -94.7661 91° East 201 231 9,000  Level Kansas City Center
09:06PM 38.7936 -94.6861 91° East 200 230 9,000  Level Kansas City Center
09:07PM 38.7931 -94.6178 91° East 201 231 9,000  Level Kansas City Center
09:08PM 38.7917 -94.5506 91° East 199 229 9,000  Level Kansas City Center
09:09PM 38.7906 -94.4708 91° East 200 230 9,000  Level Kansas City Center
09:11PM 38.7900 -94.4033 91° East 199 229 9,000  Level Kansas City Center
09:12PM 38.7894 -94.3228 90° East 201 231 9,000  Level Kansas City Center
09:13PM 38.7872 -94.2550 92° East 200 230 9,000  Level Kansas City Center
09:14PM 38.7861 -94.1756 91° East 200 230 9,000  Level Kansas City Center
09:15PM 38.7844 -94.1075 92° East 201 231 9,000  Level Kansas City Center
09:16PM 38.7819 -94.0275 92° East 202 232 9,000  Level Kansas City Center
09:17PM 38.7811 -93.9586 91° East 202 232 9,000  Level Kansas City Center
09:18PM 38.7797 -93.8892 91° East 204 235 9,000  Level Kansas City Center
09:19PM 38.7786 -93.8094 91° East 202 232 9,000  Level Kansas City Center
09:20PM 38.7753 -93.7344 93° East 201 231 9,000  Level Kansas City Center
09:21PM 38.7725 -93.6622 93° East 202 232 9,000  Level Kansas City Center
09:22PM 38.7697 -93.5906 93° East 202 232 9,000  Level Kansas City Center
09:23PM 38.7667 -93.5189 93° East 202 232 9,000  Level Kansas City Center
09:24PM 38.7647 -93.4472 92° East 201 231 9,000  Level Kansas City Center
09:25PM 38.7653 -93.3731 89° East 203 234 9,000  Level Kansas City Center
09:26PM 38.7633 -93.2997 92° East 205 236 9,000  Level Kansas City Center
09:27PM 38.7606 -93.2128 92° East 203 234 9,000  Level Kansas City Center
09:28PM 38.7569 -93.1419 94° East 201 231 9,000  Level Kansas City Center
09:29PM 38.7547 -93.0556 92° East 201 231 9,000  Level Kansas City Center
09:30PM 38.7536 -92.9814 91° East 204 235 9,000  Level Kansas City Center
09:31PM 38.7522 -92.9081 91° East 206 237 9,000  Level Kansas City Center
09:32PM 38.7492 -92.8344 93° East 206 237 9,000  Level Kansas City Center
09:33PM 38.7469 -92.7625 92° East 204 235 9,000  Level Kansas City Center
09:34PM 38.7433 -92.6758 93° East 203 234 9,000  Level Kansas City Center
09:35PM 38.7419 -92.6053 91° East 200 230 9,000  Level Kansas City Center
09:36PM 38.7392 -92.5339 93° East 200 230 9,000  Level Kansas City Center
09:37PM 38.7369 -92.4633 92° East 199 229 9,000  Level Kansas City Center
09:39PM 38.7344 -92.3928 93° East 198 228 9,000  Level Kansas City Center
09:40PM 38.7319 -92.3186 92° East 203 234 9,000  Level Kansas City Center
09:41PM 38.7292 -92.2464 93° East 202 232 9,000  Level Kansas City Center
09:42PM 38.7261 -92.1753 93° East 200 230 9,000  Level Kansas City Center
09:43PM 38.7239 -92.1044 92° East 199 229 9,000  Level Kansas City Center
09:44PM 38.7211 -92.0189 92° East 200 230 9,000  Level Kansas City Center
09:45PM 38.7183 -91.9469 93° East 200 230 9,000  Level Kansas City Center
09:46PM 38.7156 -91.8747 93° East 202 232 9,000  Level Kansas City Center
09:47PM 38.7133 -91.8050 92° East 198 228 9,000  Level Kansas City Center
09:48PM 38.7086 -91.7331 95° East 200 230 9,000  Level Kansas City Center
09:49PM 38.7072 -91.6617 91° East 200 230 9,000  Level Kansas City Center
09:50PM 38.7039 -91.5914 93° East 199 229 9,000 -300 Level Kansas City Center
09:51PM 38.7000 -91.5219 94° East 196 226 8,400 -840 Descending Kansas City Center
09:52PM 38.6967 -91.4544 94° East 163 188 7,300 -1,260 Descending Kansas City Center
09:53PM 38.6931 -91.3972 95° East 158 182 5,900 -1,200 Descending Kansas City Center
09:54PM 38.6903 -91.3469 94° East 162 186 5,000 -480 Descending Kansas City Center
09:55PM 38.6906 -91.2708 90° East 176 203 5,000  Level Kansas City Center
09:56PM 38.6869 -91.2067 94° East 179 206 5,000  Level Kansas City Center
09:57PM 38.6858 -91.1431 91° East 180 207 5,000 -60 Level Kansas City Center
09:58PM 38.6853 -91.0789 91° East 180 207 4,900 -300 Descending Kansas City Center
09:59PM 38.6856 -91.0189 90° East 171 197 4,400 -540 Descending Kansas City Center
10:00PM 38.6881 -90.9614 87° East 164 189 3,900 -540 Descending Kansas City Center
10:01PM 38.6869 -90.9011 91° East 168 193 3,400 -540 Descending Kansas City Center
10:02PM 38.6869 -90.8467 90° East 159 183 2,900 -540 Descending Kansas City Center
10:03PM 38.6778 -90.7922 102° East 142 163 2,400 -480 Descending Kansas City Center
10:04PM 38.6633 -90.7544 116° Southeast 128 147 2,000 -540 Descending Kansas City Center
10:05PM 38.6486 -90.7167 117° Southeast 123 142 1,300 -600 Descending Kansas City Center
10:06PM 38.6556 -90.6747 78° East 120 138 800 -360 Descending Kansas City Center
10:07PM 38.6614 -90.6408 78° East 116 133 600 -240 Descending Kansas City Center
10:09PM 38.6500 -90.6500 270° West  Level FlightAware Approximate